createdAt,value
2019-01-23T00:00:06.468Z,28.00
2019-01-23T00:02:39.345Z,28.00
2019-01-23T00:05:11.816Z,28.00
2019-01-23T00:07:44.385Z,28.00
2019-01-23T00:10:17.236Z,28.00
2019-01-23T00:12:49.758Z,27.90
2019-01-23T00:15:22.270Z,28.00
2019-01-23T00:17:54.830Z,28.00
2019-01-23T00:20:27.337Z,28.00
2019-01-23T00:56:46.226Z,27.90
2019-01-23T00:59:19.423Z,27.80
2019-01-23T01:05:20.362Z,27.80
2019-01-23T01:07:52.838Z,27.80
2019-01-23T01:10:25.341Z,27.80
2019-01-23T01:12:57.869Z,27.90
2019-01-23T01:15:30.472Z,27.90
2019-01-23T01:18:02.949Z,27.90
2019-01-23T01:20:35.546Z,27.90
2019-01-23T01:23:08.058Z,27.90
2019-01-23T01:25:40.599Z,27.70
2019-01-23T01:28:13.171Z,27.70
2019-01-23T01:30:45.691Z,27.60
2019-01-23T01:33:19.502Z,27.60
2019-01-23T01:35:51.945Z,27.60
2019-01-23T01:38:24.533Z,27.60
2019-01-23T01:40:57.078Z,27.50
2019-01-23T01:43:29.674Z,27.50
2019-01-23T01:46:02.175Z,27.50
2019-01-23T01:48:34.725Z,27.60
2019-01-23T01:51:07.238Z,27.60
2019-01-23T01:53:39.809Z,27.60
2019-01-23T01:56:12.313Z,27.70
2019-01-23T01:58:44.891Z,27.70
2019-01-23T02:01:17.513Z,27.70
2019-01-23T02:03:50.065Z,27.70
2019-01-23T02:06:22.589Z,27.70
2019-01-23T02:08:55.081Z,27.70
2019-01-23T02:11:27.685Z,27.70
2019-01-23T02:14:00.176Z,27.70
2019-01-23T02:16:32.773Z,27.70
2019-01-23T02:19:05.318Z,27.80
2019-01-23T02:21:37.808Z,27.80
2019-01-23T02:24:10.366Z,28.20
2019-01-23T02:26:44.211Z,27.70
2019-01-23T02:29:16.757Z,27.60
2019-01-23T02:31:49.306Z,27.80
2019-01-23T02:34:21.820Z,28.30
2019-01-23T02:36:54.433Z,27.90
2019-01-23T02:39:26.958Z,27.80
2019-01-23T02:41:59.505Z,27.70
2019-01-23T02:44:31.942Z,28.00
2019-01-23T02:47:04.450Z,28.00
2019-01-23T02:58:44.984Z,27.90
2019-01-23T03:01:17.512Z,28.00
2019-01-23T03:03:50.032Z,28.00
2019-01-23T03:06:22.489Z,28.00
2019-01-23T03:08:55.045Z,28.10
2019-01-23T03:11:27.515Z,28.00
2019-01-23T03:14:00.077Z,28.00
2019-01-23T03:19:04.148Z,27.90
2019-01-23T03:21:36.645Z,28.30
2019-01-23T03:24:09.172Z,28.30
2019-01-23T03:29:13.235Z,28.30
2019-01-23T03:34:17.254Z,27.90
2019-01-23T03:36:51.050Z,28.60
2019-01-23T03:39:23.579Z,28.00
2019-01-23T03:41:56.089Z,30.30
2019-01-23T03:44:28.606Z,28.00
2019-01-23T03:47:01.113Z,28.20
2019-01-23T03:49:33.619Z,28.10
2019-01-23T03:52:06.134Z,28.00
2019-01-23T03:54:38.597Z,28.40
2019-01-23T03:57:11.157Z,28.10
2019-01-23T03:59:43.745Z,28.10
2019-01-23T04:02:16.275Z,27.80
2019-01-23T04:04:48.790Z,27.70
2019-01-23T04:07:21.287Z,27.90
2019-01-23T04:09:53.816Z,27.70
2019-01-23T04:12:26.323Z,27.60
2019-01-23T04:14:58.839Z,27.40
2019-01-23T04:17:31.457Z,27.20
2019-01-23T04:20:03.976Z,27.10
2019-01-23T04:22:36.478Z,27.10
2019-01-23T04:25:10.489Z,27.20
2019-01-23T04:27:43.245Z,27.10
2019-01-23T04:30:20.320Z,27.10
2019-01-23T04:32:52.789Z,27.00
2019-01-23T04:35:25.345Z,27.00
2019-01-23T04:37:57.844Z,27.10
2019-01-23T04:40:34.068Z,27.10
2019-01-23T04:43:06.529Z,27.00
2019-01-23T04:45:39.088Z,26.80
2019-01-23T04:48:11.622Z,26.90
2019-01-23T04:51:03.409Z,26.90
2019-01-23T04:53:36.964Z,26.70
2019-01-23T04:56:09.524Z,26.60
2019-01-23T04:58:42.054Z,26.80
2019-01-23T05:01:15.090Z,26.70
2019-01-23T05:03:47.589Z,27.00
2019-01-23T05:06:20.109Z,26.80
2019-01-23T05:08:52.608Z,26.80
2019-01-23T05:11:25.108Z,26.70
2019-01-23T05:13:57.587Z,26.70
2019-01-23T05:16:30.143Z,26.80
2019-01-23T05:19:02.631Z,26.50
2019-01-23T05:21:35.169Z,26.90
2019-01-23T05:24:07.669Z,26.30
2019-01-23T05:26:40.197Z,26.30
2019-01-23T05:29:12.693Z,26.40
2019-01-23T05:31:45.250Z,27.30
2019-01-23T05:34:17.739Z,26.70
2019-01-23T05:39:21.774Z,26.60
2019-01-23T05:41:54.274Z,26.60
2019-01-23T05:44:26.737Z,26.50
2019-01-23T05:46:59.294Z,26.50
2019-01-23T05:49:31.845Z,26.80
2019-01-23T05:52:04.491Z,26.40
2019-01-23T05:54:36.993Z,26.40
2019-01-23T05:57:09.533Z,26.40
2019-01-23T05:59:42.030Z,26.40
2019-01-23T06:02:14.865Z,26.40
2019-01-23T06:04:47.362Z,26.60
2019-01-23T06:07:19.884Z,26.40
2019-01-23T06:09:53.476Z,26.40
2019-01-23T06:12:26.089Z,26.40
2019-01-23T06:14:58.617Z,26.50
2019-01-23T06:17:31.082Z,26.50
2019-01-23T06:20:03.637Z,26.60
2019-01-23T06:22:36.127Z,26.60
2019-01-23T06:25:09.158Z,26.70
2019-01-23T06:27:41.687Z,26.80
2019-01-23T06:30:19.275Z,26.90
2019-01-23T06:32:52.798Z,26.90
2019-01-23T06:35:29.008Z,27.00
2019-01-23T06:38:05.754Z,27.10
2019-01-23T06:40:39.938Z,27.00
2019-01-23T06:43:16.753Z,26.80
2019-01-23T06:45:50.888Z,27.00
2019-01-23T06:48:23.830Z,26.90
2019-01-23T06:50:59.005Z,26.80
2019-01-23T06:53:31.012Z,26.80
2019-01-23T06:56:03.520Z,26.70
2019-01-23T06:58:36.000Z,26.60
2019-01-23T07:01:09.634Z,26.70
2019-01-23T07:03:42.177Z,26.60
2019-01-23T07:08:47.209Z,26.50
2019-01-23T07:11:19.729Z,26.40
2019-01-23T07:13:53.418Z,26.00
2019-01-23T07:16:27.007Z,26.20
2019-01-23T07:25:55.077Z,26.00
2019-01-23T07:28:27.578Z,26.10
2019-01-23T07:31:00.178Z,26.00
2019-01-23T07:33:33.932Z,26.20
2019-01-23T07:36:06.552Z,26.00
2019-01-23T07:38:39.071Z,26.20
2019-01-23T07:41:11.589Z,26.10
2019-01-23T07:43:44.062Z,26.00
2019-01-23T07:46:16.634Z,26.00
2019-01-23T07:48:49.079Z,26.00
2019-01-23T07:51:21.595Z,25.90
2019-01-23T07:53:54.158Z,26.20
2019-01-23T07:56:26.670Z,26.00
2019-01-23T07:58:59.150Z,26.10
2019-01-23T08:01:31.842Z,26.00
2019-01-23T08:04:04.681Z,25.90
2019-01-23T08:06:37.236Z,25.90
2019-01-23T08:09:10.841Z,26.10
2019-01-23T08:11:43.468Z,25.90
2019-01-23T08:14:16.371Z,25.90
2019-01-23T08:16:48.886Z,26.10
2019-01-23T08:19:21.386Z,26.20
2019-01-23T08:21:53.921Z,26.10
2019-01-23T08:24:26.427Z,26.10
2019-01-23T08:26:58.945Z,26.10
2019-01-23T08:29:31.443Z,26.20
2019-01-23T08:32:04.009Z,26.20
2019-01-23T08:34:36.513Z,26.10
2019-01-23T08:37:09.021Z,26.10
2019-01-23T08:39:45.447Z,25.70
2019-01-23T08:42:18.009Z,26.00
2019-01-23T08:44:50.479Z,26.10
2019-01-23T08:47:23.041Z,26.10
2019-01-23T08:49:55.515Z,26.20
2019-01-23T08:52:28.034Z,26.30
2019-01-23T08:55:00.563Z,26.20
2019-01-23T08:57:32.983Z,26.20
2019-01-23T09:00:05.543Z,26.20
2019-01-23T09:02:38.293Z,26.00
2019-01-23T09:05:16.648Z,26.20
2019-01-23T09:07:50.146Z,26.10
2019-01-23T09:10:30.899Z,26.10
2019-01-23T09:13:03.447Z,26.20
2019-01-23T09:15:35.914Z,26.20
2019-01-23T09:18:08.489Z,26.20
2019-01-23T09:20:40.966Z,26.10
2019-01-23T09:23:13.538Z,26.00
2019-01-23T09:25:50.071Z,26.00
2019-01-23T09:28:23.475Z,26.10
2019-01-23T09:30:59.136Z,26.10
2019-01-23T09:33:36.332Z,26.00
2019-01-23T09:36:31.009Z,26.00
2019-01-23T09:39:31.033Z,26.00
2019-01-23T09:42:33.745Z,25.70
2019-01-23T09:45:26.378Z,26.00
2019-01-23T09:48:09.808Z,26.10
2019-01-23T09:50:44.438Z,26.00
2019-01-23T09:53:19.072Z,26.00
2019-01-23T09:55:51.604Z,25.70
2019-01-23T09:58:24.097Z,25.90
2019-01-23T10:00:59.894Z,25.90
2019-01-23T10:03:30.783Z,26.00
2019-01-23T10:06:03.378Z,26.10
2019-01-23T10:08:35.872Z,26.00
2019-01-23T10:11:08.673Z,26.10
2019-01-23T10:13:43.765Z,26.00
2019-01-23T10:16:16.308Z,26.00
2019-01-23T10:18:48.863Z,25.90
2019-01-23T10:21:21.444Z,25.60
2019-01-23T10:23:53.965Z,25.90
2019-01-23T10:26:26.460Z,25.80
2019-01-23T10:28:59.147Z,25.90
2019-01-23T10:31:34.472Z,25.90
2019-01-23T10:34:06.967Z,25.90
2019-01-23T10:36:39.501Z,25.90
2019-01-23T10:39:11.978Z,25.90
2019-01-23T10:41:46.553Z,25.90
2019-01-23T10:44:19.095Z,26.00
2019-01-23T10:46:51.750Z,26.00
2019-01-23T10:49:24.339Z,25.90
2019-01-23T10:51:56.962Z,25.90
2019-01-23T10:54:29.431Z,26.00
2019-01-23T10:57:01.941Z,26.00
2019-01-23T10:59:34.459Z,25.90
2019-01-23T11:02:06.981Z,25.90
2019-01-23T11:04:41.642Z,25.90
2019-01-23T11:07:13.861Z,26.00
2019-01-23T11:09:46.362Z,26.00
2019-01-23T11:12:18.851Z,26.00
2019-01-23T11:14:51.393Z,26.00
2019-01-23T11:17:23.884Z,25.90
2019-01-23T11:19:56.434Z,25.90
2019-01-23T11:22:29.019Z,25.90
2019-01-23T11:25:01.550Z,25.90
2019-01-23T11:27:34.073Z,25.90
2019-01-23T11:30:07.281Z,25.90
2019-01-23T11:32:39.824Z,25.90
2019-01-23T11:35:12.931Z,25.90
2019-01-23T11:37:45.424Z,25.90
2019-01-23T11:40:20.318Z,25.90
2019-01-23T11:42:52.868Z,25.90
2019-01-23T11:45:25.371Z,25.90
2019-01-23T11:47:58.963Z,25.90
2019-01-23T11:50:31.416Z,25.90
2019-01-23T11:53:03.975Z,25.60
2019-01-23T11:55:36.548Z,25.90
2019-01-23T11:58:09.094Z,25.80
2019-01-23T12:00:42.806Z,25.60
2019-01-23T12:03:20.930Z,25.90
2019-01-23T12:05:50.105Z,25.90
2019-01-23T12:08:22.632Z,25.90
2019-01-23T12:10:55.183Z,25.90
2019-01-23T12:13:27.655Z,26.00
2019-01-23T12:16:00.212Z,26.10
2019-01-23T12:18:32.697Z,26.00
2019-01-23T12:21:05.248Z,26.10
2019-01-23T12:23:39.551Z,26.10
2019-01-23T12:26:11.532Z,26.10
2019-01-23T12:28:44.070Z,26.10
2019-01-23T12:31:16.564Z,26.10
2019-01-23T12:33:49.091Z,26.10
2019-01-23T12:36:21.586Z,26.10
2019-01-23T12:38:54.102Z,26.10
2019-01-23T12:41:26.586Z,26.10
2019-01-23T12:43:59.137Z,26.10
2019-01-23T12:46:31.636Z,25.90
2019-01-23T12:49:04.145Z,25.90
2019-01-23T12:51:36.646Z,26.00
2019-01-23T12:54:09.261Z,25.90
2019-01-23T12:56:41.729Z,25.90
2019-01-23T12:59:14.276Z,26.00
2019-01-23T13:01:47.090Z,26.10
2019-01-23T13:04:19.657Z,26.10
2019-01-23T13:06:52.578Z,26.10
2019-01-23T13:09:25.089Z,26.10
2019-01-23T13:11:58.597Z,26.10
2019-01-23T13:14:31.066Z,26.10
2019-01-23T13:17:03.594Z,26.10
2019-01-23T13:19:36.206Z,26.10
2019-01-23T13:22:08.700Z,26.00
2019-01-23T13:24:41.298Z,26.10
2019-01-23T13:27:13.844Z,26.10
2019-01-23T13:29:46.308Z,26.10
2019-01-23T13:32:18.848Z,26.10
2019-01-23T13:34:51.430Z,26.10
2019-01-23T13:37:23.937Z,26.10
2019-01-23T13:39:56.461Z,26.10
2019-01-23T13:42:28.960Z,26.10
2019-01-23T13:45:01.434Z,26.00
2019-01-23T13:47:33.930Z,25.90
2019-01-23T13:50:06.896Z,25.90
2019-01-23T13:52:39.432Z,25.90
2019-01-23T13:55:17.162Z,25.90
2019-01-23T13:57:49.615Z,25.90
2019-01-23T14:00:27.148Z,25.90
2019-01-23T14:02:59.649Z,25.80
2019-01-23T14:05:32.212Z,25.90
2019-01-23T14:08:04.723Z,25.80
2019-01-23T14:10:37.332Z,25.80
2019-01-23T14:13:09.812Z,25.80
2019-01-23T14:15:42.881Z,25.80
2019-01-23T14:18:15.412Z,25.80
2019-01-23T14:20:47.938Z,25.80
2019-01-23T14:23:20.823Z,25.90
2019-01-23T14:25:53.322Z,25.90
2019-01-23T14:28:25.865Z,25.90
2019-01-23T14:30:58.482Z,25.80
2019-01-23T14:33:30.979Z,25.90
2019-01-23T14:36:03.503Z,25.90
2019-01-23T14:38:36.151Z,25.90
2019-01-23T14:41:08.772Z,25.90
2019-01-23T14:43:41.284Z,25.80
2019-01-23T14:46:13.805Z,25.90
2019-01-23T14:48:46.296Z,25.80
2019-01-23T14:51:18.808Z,25.80
2019-01-23T14:53:51.317Z,25.80
2019-01-23T14:56:23.878Z,25.80
2019-01-23T14:58:56.388Z,25.70
2019-01-23T15:01:28.908Z,25.80
2019-01-23T15:04:01.492Z,25.80
2019-01-23T15:06:34.073Z,25.80
2019-01-23T15:09:07.633Z,25.90
2019-01-23T15:11:40.562Z,25.40
2019-01-23T15:14:13.066Z,25.80
2019-01-23T15:16:45.706Z,25.80
2019-01-23T15:19:18.188Z,25.80
2019-01-23T15:21:50.713Z,25.80
2019-01-23T15:24:23.198Z,25.80
2019-01-23T15:26:55.724Z,25.80
2019-01-23T15:29:28.277Z,25.80
2019-01-23T15:32:00.815Z,25.90
2019-01-23T15:34:33.281Z,25.90
2019-01-23T15:37:05.845Z,25.90
2019-01-23T15:39:40.062Z,25.80
2019-01-23T15:42:12.069Z,25.70
2019-01-23T15:44:44.573Z,25.40
2019-01-23T15:47:17.101Z,25.60
2019-01-23T15:49:51.587Z,25.60
2019-01-23T15:52:23.584Z,25.70
2019-01-23T15:54:56.095Z,25.70
2019-01-23T15:57:28.704Z,25.70
2019-01-23T16:00:01.171Z,25.70
2019-01-23T16:02:35.010Z,25.70
2019-01-23T16:05:07.821Z,25.70
2019-01-23T16:07:41.056Z,25.80
2019-01-23T16:10:15.685Z,25.90
2019-01-23T16:12:48.201Z,25.80
2019-01-23T16:15:22.368Z,25.80
2019-01-23T16:17:54.912Z,25.80
2019-01-23T16:20:27.434Z,25.80
2019-01-23T16:22:59.985Z,25.80
2019-01-23T16:25:32.495Z,25.80
2019-01-23T16:28:05.073Z,25.80
2019-01-23T16:30:40.652Z,25.80
2019-01-23T16:33:13.279Z,25.70
2019-01-23T16:35:47.202Z,25.70
2019-01-23T16:38:19.648Z,25.70
2019-01-23T16:40:52.104Z,25.70
2019-01-23T16:43:24.689Z,25.70
2019-01-23T16:45:57.224Z,25.70
2019-01-23T16:48:29.796Z,25.70
2019-01-23T16:51:02.292Z,25.70
2019-01-23T16:53:34.885Z,25.80
2019-01-23T16:56:08.678Z,26.30
2019-01-23T16:58:41.188Z,25.80
2019-01-23T17:01:13.679Z,25.80
2019-01-23T17:03:46.283Z,25.80
2019-01-23T17:06:18.782Z,25.80
2019-01-23T17:08:51.693Z,25.90
2019-01-23T17:11:24.185Z,25.80
2019-01-23T17:13:56.696Z,25.90
2019-01-23T17:16:29.159Z,25.90
2019-01-23T17:19:01.815Z,25.90
2019-01-23T17:21:34.357Z,25.90
2019-01-23T17:24:06.885Z,25.80
2019-01-23T17:26:39.427Z,25.80
2019-01-23T17:29:11.997Z,25.80
2019-01-23T17:31:44.492Z,25.80
2019-01-23T17:34:17.004Z,25.90
2019-01-23T17:36:49.504Z,25.80
2019-01-23T17:39:22.086Z,25.70
2019-01-23T17:41:54.570Z,25.70
2019-01-23T17:44:27.124Z,26.20
2019-01-23T17:46:59.623Z,25.70
2019-01-23T17:49:32.206Z,25.80
2019-01-23T17:52:04.697Z,25.80
2019-01-23T17:54:37.239Z,25.80
2019-01-23T17:57:09.789Z,25.70
2019-01-23T17:59:42.301Z,25.80
2019-01-23T18:04:48.622Z,25.70
2019-01-23T18:07:21.447Z,25.70
2019-01-23T18:09:53.959Z,25.80
2019-01-23T18:12:26.417Z,25.80
2019-01-23T18:14:58.924Z,25.80
2019-01-23T18:17:31.534Z,25.80
2019-01-23T18:20:03.997Z,25.80
2019-01-23T18:22:36.534Z,25.80
2019-01-23T18:25:10.753Z,25.80
2019-01-23T18:27:43.361Z,25.70
2019-01-23T18:30:21.120Z,25.70
2019-01-23T18:32:59.674Z,25.70
2019-01-23T18:35:38.262Z,25.70
2019-01-23T18:38:30.798Z,25.70
2019-01-23T18:41:30.614Z,25.80
2019-01-23T18:44:20.460Z,25.80
2019-01-23T18:47:09.844Z,25.80
2019-01-23T18:50:14.322Z,25.70
2019-01-23T18:52:46.976Z,25.70
2019-01-23T18:55:20.892Z,25.70
2019-01-23T18:57:53.413Z,25.70
2019-01-23T19:00:26.105Z,25.70
2019-01-23T19:02:58.617Z,25.70
2019-01-23T19:05:31.231Z,25.70
2019-01-23T19:08:03.768Z,25.70
2019-01-23T19:10:36.279Z,25.70
2019-01-23T19:13:08.736Z,25.80
2019-01-23T19:15:41.357Z,25.70
2019-01-23T19:18:13.937Z,25.60
2019-01-23T19:20:46.485Z,25.60
2019-01-23T19:23:19.004Z,25.70
2019-01-23T19:25:51.494Z,25.80
2019-01-23T19:28:24.012Z,25.70
2019-01-23T19:30:56.507Z,25.60
2019-01-23T19:33:29.123Z,25.60
2019-01-23T19:36:01.638Z,25.60
2019-01-23T19:38:34.177Z,25.60
2019-01-23T19:41:06.633Z,25.60
2019-01-23T19:43:39.171Z,25.60
2019-01-23T19:46:11.701Z,25.60
2019-01-23T19:48:44.248Z,25.60
2019-01-23T19:51:16.804Z,25.60
2019-01-23T19:53:49.312Z,25.60
2019-01-23T19:56:21.813Z,25.60
2019-01-23T19:58:54.322Z,25.70
2019-01-23T20:01:26.789Z,25.70
2019-01-23T20:03:59.383Z,25.60
2019-01-23T20:06:32.409Z,25.60
2019-01-23T20:09:04.977Z,25.60
2019-01-23T20:11:37.477Z,25.60
2019-01-23T20:14:10.086Z,25.60
2019-01-23T20:16:42.566Z,25.60
2019-01-23T20:19:15.157Z,25.70
2019-01-23T20:21:47.662Z,25.70
2019-01-23T20:24:20.173Z,25.70
2019-01-23T20:26:52.676Z,25.70
2019-01-23T20:29:25.219Z,25.60
2019-01-23T20:31:57.792Z,25.60
2019-01-23T20:34:30.307Z,25.60
2019-01-23T20:37:02.804Z,25.60
2019-01-23T20:39:35.313Z,25.70
2019-01-23T20:42:07.821Z,25.70
2019-01-23T20:44:40.388Z,25.70
2019-01-23T20:47:12.888Z,25.70
2019-01-23T20:49:45.371Z,25.70
2019-01-23T20:52:17.895Z,25.70
2019-01-23T20:54:52.321Z,25.70
2019-01-23T20:57:24.831Z,25.70
2019-01-23T20:59:57.456Z,25.70
2019-01-23T21:02:30.042Z,25.70
2019-01-23T21:05:02.570Z,25.70
2019-01-23T21:07:35.095Z,25.70
2019-01-23T21:10:09.662Z,25.80
2019-01-23T21:12:43.063Z,25.90
2019-01-23T21:15:17.224Z,25.80
2019-01-23T21:17:49.673Z,25.80
2019-01-23T21:20:22.223Z,25.80
2019-01-23T21:22:54.715Z,25.90
2019-01-23T21:25:27.339Z,25.90
2019-01-23T21:27:59.780Z,25.90
2019-01-23T21:30:32.364Z,25.80
2019-01-23T21:38:07.878Z,26.00
2019-01-23T21:40:40.415Z,25.50
2019-01-23T21:45:44.441Z,26.30
2019-01-23T21:48:16.916Z,26.40
2019-01-23T21:50:49.432Z,25.60
2019-01-23T21:53:21.927Z,25.60
2019-01-23T21:55:54.435Z,25.20
2019-01-23T21:58:26.929Z,25.60
2019-01-23T22:00:59.563Z,26.00
2019-01-23T22:03:32.066Z,25.10
2019-01-23T22:06:04.582Z,25.60
2019-01-23T22:08:37.303Z,25.30
2019-01-23T22:11:09.826Z,25.50
2019-01-23T22:13:42.311Z,25.50
2019-01-23T22:16:14.936Z,25.70
2019-01-23T22:18:47.440Z,26.00
2019-01-23T22:23:51.530Z,25.30
2019-01-23T22:26:24.043Z,25.40
2019-01-23T22:28:56.560Z,25.70
2019-01-23T22:36:32.252Z,25.40
2019-01-23T22:41:36.262Z,25.90
2019-01-23T22:44:08.752Z,25.30
2019-01-23T22:46:41.255Z,25.50
2019-01-23T22:49:13.713Z,25.80
2019-01-23T22:54:17.787Z,25.80
2019-01-23T22:56:50.399Z,25.40
2019-01-23T23:01:54.415Z,26.10
2019-01-23T23:06:58.462Z,25.70
2019-01-23T23:12:04.084Z,25.70
2019-01-23T23:22:11.674Z,25.60
2019-01-23T23:32:18.691Z,25.50
2019-01-23T23:37:22.865Z,26.20
2019-01-23T23:39:55.368Z,25.90
2019-01-23T23:50:03.207Z,25.80
2019-01-23T23:57:39.151Z,25.60
